Time;durP1;ratioP1;P1;durP2;ratioP2;P2;SDS_P1;SDS_P2;PMS_P1;PMS_P2;Temp;Humidity;BMP_temperature;BMP_pressure;BME280_temperature;BME280_humidity;BME280_pressure;Samples;Min_cycle;Max_cycle;Signal;HPM_P1;HPM_P2
2022/08/22 00:02:41;;;;;;;17.40;11.15;;;564.10;2432.00;;;;;;5010605;28;20046;-74
2022/08/22 00:05:25;;;;;;;13.23;11.73;;;564.00;2432.00;;;;;;5019428;28;20101;-77
2022/08/22 00:08:17;;;;;;;14.65;11.57;;;564.10;2432.00;;;;;;5091173;28;20024;-74
2022/08/22 00:10:58;;;;;;;18.35;11.13;;;564.10;2432.00;;;;;;5091042;28;20077;-75
2022/08/22 00:14:07;;;;;;;20.23;11.25;;;564.10;2432.00;;;;;;5092461;28;20016;-78
2022/08/22 00:16:44;;;;;;;14.48;11.05;;;564.10;2432.00;;;;;;5077841;28;20118;-75
2022/08/22 00:19:36;;;;;;;14.95;10.40;;;564.10;2432.00;;;;;;5091433;28;20024;-76
2022/08/22 00:22:28;;;;;;;12.55;10.25;;;564.10;2432.00;;;;;;5092511;28;20046;-75
2022/08/22 00:25:26;;;;;;;13.15;10.88;;;564.10;2432.00;;;;;;5092251;28;20089;-75
2022/08/22 00:27:58;;;;;;;16.23;10.80;;;564.10;2432.00;;;;;;5091070;28;20032;-75
2022/08/22 00:30:25;;;;;;;12.77;10.23;;;564.10;2432.00;;;;;;5090606;28;20485;-77
2022/08/22 00:33:08;;;;;;;12.55;9.95;;;564.10;2432.00;;;;;;5092101;28;20194;-77
2022/08/22 00:35:46;;;;;;;15.40;10.45;;;564.10;2432.00;;;;;;5092145;28;20020;-76
2022/08/22 00:38:18;;;;;;;13.82;11.02;;;564.10;2432.00;;;;;;5091086;28;20043;-76
2022/08/22 00:40:56;;;;;;;12.32;10.93;;;564.00;2432.00;;;;;;5092048;28;20039;-77
2022/08/22 00:43:22;;;;;;;15.30;11.32;;;563.80;2432.00;;;;;;5091749;28;20032;-75
2022/08/22 00:46:15;;;;;;;15.20;11.75;;;563.80;2432.00;;;;;;5092215;28;20027;-76
2022/08/22 00:49:00;;;;;;;15.68;11.95;;;563.90;2432.00;;;;;;5091947;28;20046;-76
2022/08/22 00:51:54;;;;;;;12.93;11.50;;;563.80;2432.00;;;;;;5090648;28;20024;-75
2022/08/22 00:54:34;;;;;;;16.42;12.07;;;563.80;2432.00;;;;;;5091972;28;20024;-75
2022/08/22 00:57:18;;;;;;;13.27;11.32;;;563.80;2432.00;;;;;;5091813;28;20016;-75
2022/08/22 00:59:44;;;;;;;17.13;13.38;;;563.80;2432.00;;;;;;5091883;28;20032;-77
2022/08/22 01:02:34;;;;;;;15.75;11.07;;;563.90;2432.00;;;;;;5091825;28;20478;-75
2022/08/22 01:05:09;;;;;;;13.77;11.68;;;563.90;2432.00;;;;;;5091789;28;20099;-74
2022/08/22 01:08:16;;;;;;;14.70;11.50;;;564.00;2432.00;;;;;;5091440;28;20035;-75
2022/08/22 01:10:54;;;;;;;12.30;10.93;;;564.00;2432.00;;;;;;4992839;28;20474;-77
2022/08/22 01:13:34;;;;;;;16.17;10.75;;;564.00;2432.00;;;;;;5008707;28;20042;-74
2022/08/22 01:16:20;;;;;;;14.20;11.70;;;564.00;2432.00;;;;;;5009110;28;20040;-74
2022/08/22 01:19:10;;;;;;;11.45;10.30;;;563.90;2432.00;;;;;;5008788;28;20045;-75
2022/08/22 01:22:31;;;;;;;12.18;10.63;;;564.00;2432.00;;;;;;4994590;28;20033;-76
2022/08/22 01:25:26;;;;;;;13.60;9.88;;;564.00;2432.00;;;;;;4938009;29;20483;-77
2022/08/22 01:28:04;;;;;;;14.13;10.55;;;563.90;2432.00;;;;;;4953925;29;20094;-76
2022/08/22 01:30:32;;;;;;;12.63;10.25;;;564.00;2432.00;;;;;;4953929;29;20601;-77
2022/08/22 01:33:01;;;;;;;11.93;10.15;;;563.90;2432.00;;;;;;4938067;29;20545;-74
2022/08/22 01:35:54;;;;;;;12.18;9.93;;;564.00;2432.00;;;;;;4937815;29;20050;-76
2022/08/22 01:38:44;;;;;;;12.85;10.20;;;564.00;2432.00;;;;;;4953846;29;20791;-76
2022/08/22 01:41:40;;;;;;;11.18;9.68;;;564.00;2432.00;;;;;;4954274;29;20035;-74
2022/08/22 01:44:15;;;;;;;15.13;11.10;;;564.00;2432.00;;;;;;4968868;28;20041;-78
2022/08/22 01:46:57;;;;;;;14.38;9.65;;;564.00;2432.00;;;;;;5013299;28;20479;-76
2022/08/22 01:49:28;;;;;;;12.43;10.30;;;564.00;2432.00;;;;;;5013142;28;20030;-79
2022/08/22 01:52:01;;;;;;;12.48;10.10;;;564.00;2432.00;;;;;;4996701;28;20022;-79
2022/08/22 01:54:35;;;;;;;13.35;10.73;;;564.00;2432.00;;;;;;4996721;28;20068;-78
2022/08/22 01:57:06;;;;;;;13.27;10.27;;;564.00;2432.00;;;;;;4996628;28;20109;-78
2022/08/22 01:59:46;;;;;;;15.57;11.13;;;564.00;2432.00;;;;;;4996008;28;20034;-76
2022/08/22 02:02:33;;;;;;;12.57;10.85;;;563.90;2432.00;;;;;;5053051;28;20048;-75
2022/08/22 02:05:06;;;;;;;11.80;10.57;;;563.90;2432.00;;;;;;5094902;28;20028;-74
2022/08/22 02:07:50;;;;;;;14.25;11.13;;;564.00;2432.00;;;;;;5094918;28;20470;-78
2022/08/22 02:10:51;;;;;;;13.52;10.52;;;563.90;2432.00;;;;;;5094628;28;20024;-76
2022/08/22 02:13:22;;;;;;;12.23;9.75;;;563.90;2432.00;;;;;;5093197;28;20390;-76
2022/08/22 02:16:10;;;;;;;12.27;10.52;;;;;;;;;;5094836;28;20088;-76
2022/08/22 02:19:11;;;;;;;11.23;9.68;;;563.90;2432.00;;;;;;5093316;28;20127;-76
2022/08/22 02:22:06;;;;;;;12.48;10.65;;;564.00;2432.00;;;;;;5012160;28;20516;-76
2022/08/22 02:24:50;;;;;;;11.13;9.95;;;564.00;2432.00;;;;;;4981481;28;20065;-76
2022/08/22 02:27:53;;;;;;;11.68;10.40;;;564.00;2432.00;;;;;;5011684;28;20056;-76
2022/08/22 02:30:29;;;;;;;13.68;11.45;;;563.90;2432.00;;;;;;4997552;28;20121;-76
2022/08/22 02:33:11;;;;;;;10.45;8.95;;;563.80;2432.00;;;;;;5011941;28;20116;-77
2022/08/22 02:36:20;;;;;;;11.10;9.80;;;563.70;2432.00;;;;;;4995261;28;20526;-76
2022/08/22 02:38:58;;;;;;;17.25;10.70;;;563.80;2432.00;;;;;;4953606;29;20137;-76
2022/08/22 02:41:45;;;;;;;12.00;10.80;;;563.70;2432.00;;;;;;4953576;28;20031;-75
2022/08/22 02:44:32;;;;;;;15.57;10.65;;;563.70;2432.00;;;;;;4953950;28;20059;-74
2022/08/22 02:47:22;;;;;;;10.75;9.13;;;563.60;2432.00;;;;;;4952954;28;20031;-74
2022/08/22 02:50:00;;;;;;;11.75;9.20;;;563.70;2432.00;;;;;;4952433;28;20094;-75
2022/08/22 02:52:52;;;;;;;10.98;9.80;;;563.80;2432.00;;;;;;4952432;29;20249;-75
2022/08/22 02:55:32;;;;;;;13.40;9.48;;;563.80;2432.00;;;;;;4945958;28;20035;-74
2022/08/22 02:58:30;;;;;;;9.95;8.95;;;563.70;2432.00;;;;;;4966684;28;20037;-74
2022/08/22 03:01:02;;;;;;;10.93;9.82;;;563.60;2432.00;;;;;;5013809;28;20049;-76
2022/08/22 03:03:36;;;;;;;11.10;9.52;;;563.50;2432.00;;;;;;5030257;28;20058;-76
2022/08/22 03:06:25;;;;;;;10.73;9.63;;;563.40;2432.00;;;;;;5014098;28;20116;-74
2022/08/22 03:09:14;;;;;;;10.93;8.63;;;563.50;2432.00;;;;;;5016687;28;20091;-75
2022/08/22 03:11:45;;;;;;;10.23;7.63;;;563.60;2432.00;;;;;;5030279;28;20026;-74
2022/08/22 03:14:14;;;;;;;9.30;8.00;;;563.50;2432.00;;;;;;5030499;28;20022;-78
2022/08/22 03:17:08;;;;;;;8.52;7.07;;;563.60;2432.00;;;;;;5078537;28;20043;-73
2022/08/22 03:20:03;;;;;;;7.63;6.32;;;563.60;2432.00;;;;;;5092362;28;20024;-74
2022/08/22 03:23:04;;;;;;;10.60;6.28;;;563.60;2432.00;;;;;;5092340;28;20024;-74
2022/08/22 03:25:56;;;;;;;8.60;6.88;;;563.50;2432.00;;;;;;5092346;28;20058;-74
2022/08/22 03:28:30;;;;;;;7.57;6.72;;;563.40;2432.00;;;;;;5090893;28;20039;-74
2022/08/22 03:30:56;;;;;;;8.27;6.65;;;563.50;2432.00;;;;;;5091815;28;20103;-76
2022/08/22 03:33:28;;;;;;;7.63;6.72;;;563.60;2432.00;;;;;;5090876;28;20469;-76
2022/08/22 03:36:00;;;;;;;7.85;6.55;;;563.50;2432.00;;;;;;5092356;28;20485;-75
2022/08/22 03:38:32;;;;;;;9.60;6.47;;;563.50;2432.00;;;;;;5091925;28;20032;-76
2022/08/22 03:41:35;;;;;;;8.85;6.05;;;563.50;2432.00;;;;;;5092302;28;20024;-74
2022/08/22 03:44:29;;;;;;;13.82;6.68;;;563.60;2432.00;;;;;;5091528;28;20035;-75
2022/08/22 03:47:16;;;;;;;8.88;6.15;;;563.50;2432.00;;;;;;5092937;28;20038;-74
2022/08/22 03:50:00;;;;;;;7.05;6.30;;;563.50;2432.00;;;;;;5092736;28;20401;-78
2022/08/22 03:53:06;;;;;;;6.72;5.20;;;563.60;2432.00;;;;;;5092834;28;20047;-75
2022/08/22 03:55:54;;;;;;;6.10;5.45;;;563.50;2432.00;;;;;;5092827;28;20385;-77
2022/08/22 03:58:34;;;;;;;7.43;5.82;;;563.60;2432.00;;;;;;5091666;28;20030;-75
2022/08/22 04:01:27;;;;;;;11.57;6.63;;;563.50;2432.00;;;;;;5090818;28;20028;-75
2022/08/22 04:04:11;;;;;;;8.48;5.90;;;563.40;2432.00;;;;;;5092410;28;20122;-77
2022/08/22 04:07:04;;;;;;;8.13;6.32;;;563.40;2432.00;;;;;;5092606;28;20458;-75
2022/08/22 04:10:08;;;;;;;8.50;6.68;;;563.40;2432.00;;;;;;5092821;28;20098;-78
2022/08/22 04:13:18;;;;;;;9.52;6.13;;;563.40;2432.00;;;;;;5092589;28;20020;-75
2022/08/22 04:16:02;;;;;;;9.15;7.80;;;563.50;2432.00;;;;;;5061601;28;20489;-78
2022/08/22 04:19:15;;;;;;;8.00;7.20;;;563.50;2432.00;;;;;;5091223;28;20126;-75
2022/08/22 04:21:50;;;;;;;8.65;7.00;;;563.60;2432.00;;;;;;5010668;28;20041;-76
2022/08/22 04:24:15;;;;;;;8.73;7.35;;;563.60;2432.00;;;;;;5010445;28;20034;-81
2022/08/22 04:26:54;;;;;;;10.95;8.23;;;563.70;2432.00;;;;;;5010722;28;20125;-81
2022/08/22 04:29:32;;;;;;;10.73;7.65;;;563.60;2432.00;;;;;;5010389;28;20475;-74
2022/08/22 04:32:20;;;;;;;9.85;8.02;;;563.60;2432.00;;;;;;5010111;28;20049;-74
2022/08/22 04:35:08;;;;;;;9.88;7.85;;;563.70;2432.00;;;;;;5004081;28;20077;-75
2022/08/22 04:37:41;;;;;;;10.90;8.48;;;563.60;2432.00;;;;;;5010496;28;20446;-75
2022/08/22 04:40:35;;;;;;;13.38;7.57;;;563.60;2432.00;;;;;;5017546;28;20053;-74
2022/08/22 04:43:13;;;;;;;10.38;8.43;;;563.60;2432.00;;;;;;4969667;28;20058;-75
2022/08/22 04:45:50;;;;;;;9.60;7.63;;;563.60;2432.00;;;;;;4966199;28;20127;-79
2022/08/22 04:48:36;;;;;;;9.35;6.70;;;563.60;2432.00;;;;;;4954957;28;20067;-79
2022/08/22 04:51:32;;;;;;;9.27;7.70;;;563.60;2432.00;;;;;;4970453;28;20110;-76
2022/08/22 04:54:23;;;;;;;9.60;7.13;;;563.60;2432.00;;;;;;5017887;28;20329;-77
2022/08/22 04:57:03;;;;;;;9.98;7.60;;;563.60;2432.00;;;;;;5032112;28;20018;-77
2022/08/22 04:59:30;;;;;;;8.95;6.70;;;563.60;2432.00;;;;;;5045774;28;20060;-78
2022/08/22 05:01:58;;;;;;;9.32;6.50;;;563.70;2432.00;;;;;;5052026;28;20079;-78
2022/08/22 05:04:39;;;;;;;8.55;6.57;;;563.70;2432.00;;;;;;5036399;28;20067;-78
2022/08/22 05:07:22;;;;;;;7.90;6.38;;;563.60;2432.00;;;;;;5052891;28;20036;-76
2022/08/22 05:09:57;;;;;;;7.35;6.10;;;563.50;2432.00;;;;;;5053473;28;20029;-77
2022/08/22 05:12:37;;;;;;;12.77;6.32;;;563.30;2432.00;;;;;;5052600;28;20036;-77
2022/08/22 05:15:18;;;;;;;7.53;5.63;;;563.40;2432.00;;;;;;5049040;28;20025;-76
2022/08/22 05:17:46;;;;;;;6.55;5.45;;;563.50;2432.00;;;;;;5035692;28;20041;-78
2022/08/22 05:20:17;;;;;;;7.45;5.70;;;563.60;2432.00;;;;;;5070968;28;20032;-77
2022/08/22 05:22:49;;;;;;;12.23;5.97;;;563.70;2432.00;;;;;;5101775;28;20103;-79
2022/08/22 05:25:20;;;;;;;6.68;4.93;;;563.70;2432.00;;;;;;5099829;28;20488;-78
2022/08/22 05:27:53;;;;;;;6.47;5.63;;;563.60;2432.00;;;;;;5101424;28;20066;-80
2022/08/22 05:30:24;;;;;;;8.27;4.70;;;563.70;2432.00;;;;;;5100425;28;20054;-79
2022/08/22 05:32:50;;;;;;;9.57;5.57;;;563.60;2432.00;;;;;;5084641;28;20052;-81
2022/08/22 05:35:21;;;;;;;9.07;4.97;;;563.70;2432.00;;;;;;5107426;28;20016;-79
2022/08/22 05:37:52;;;;;;;6.70;4.68;;;563.60;2432.00;;;;;;5110679;28;20034;-74
2022/08/22 05:40:27;;;;;;;5.38;4.55;;;563.60;2432.00;;;;;;5124239;27;20107;-77
2022/08/22 05:42:56;;;;;;;5.75;4.55;;;563.70;2432.00;;;;;;5097421;28;20054;-77
2022/08/22 05:45:24;;;;;;;6.18;4.18;;;563.70;2432.00;;;;;;5101280;28;20020;-77
2022/08/22 05:48:05;;;;;;;5.63;4.30;;;563.60;2432.00;;;;;;5101492;28;20039;-81
2022/08/22 05:50:36;;;;;;;6.13;4.40;;;563.80;2432.00;;;;;;5097561;28;20024;-79
2022/08/22 05:53:34;;;;;;;4.97;4.05;;;563.80;2432.00;;;;;;5098549;28;20035;-78
2022/08/22 05:56:02;;;;;;;7.00;4.82;;;563.90;2432.00;;;;;;5038096;28;20048;-79
2022/08/22 05:59:08;;;;;;;7.13;4.10;;;563.90;2432.00;;;;;;5042139;28;20029;-78
2022/08/22 06:01:50;;;;;;;4.83;3.80;;;564.00;2432.00;;;;;;4958695;28;20512;-79
2022/08/22 06:04:50;;;;;;;6.00;3.70;;;564.00;2432.00;;;;;;4954877;29;20043;-79
2022/08/22 06:07:34;;;;;;;6.07;3.60;;;564.00;2432.00;;;;;;4954521;28;20027;-78
2022/08/22 06:10:18;;;;;;;4.60;3.60;;;564.00;2432.00;;;;;;4946316;28;20043;-78
2022/08/22 06:13:06;;;;;;;3.92;3.22;;;564.00;2432.00;;;;;;4955540;28;20118;-78
2022/08/22 06:16:10;;;;;;;5.28;3.97;;;564.00;2432.00;;;;;;4951678;28;20519;-78
2022/08/22 06:18:39;;;;;;;8.80;3.88;;;564.00;2432.00;;;;;;4924253;29;20199;-75
2022/08/22 06:21:30;;;;;;;6.57;3.53;;;563.90;2432.00;;;;;;4916220;29;20036;-75
2022/08/22 06:23:59;;;;;;;7.47;3.55;;;564.00;2432.00;;;;;;4915810;29;20048;-75
2022/08/22 06:26:30;;;;;;;7.20;4.43;;;564.00;2432.00;;;;;;4916019;29;20035;-75
2022/08/22 06:28:59;;;;;;;6.53;4.53;;;564.00;2432.00;;;;;;4896987;29;20047;-75
2022/08/22 06:31:47;;;;;;;6.57;3.92;;;564.00;2432.00;;;;;;4919899;29;20053;-75
2022/08/22 06:34:21;;;;;;;5.05;3.70;;;564.00;2432.00;;;;;;4972849;28;20026;-76
2022/08/22 06:36:50;;;;;;;6.03;4.55;;;564.00;2432.00;;;;;;4973361;28;20039;-75
2022/08/22 06:39:21;;;;;;;6.43;5.00;;;564.00;2432.00;;;;;;5031459;28;20563;-80
2022/08/22 06:42:09;;;;;;;7.68;4.85;;;564.00;2432.00;;;;;;5032066;28;20442;-75
2022/08/22 06:44:49;;;;;;;6.47;5.07;;;564.00;2432.00;;;;;;5037756;28;20117;-76
2022/08/22 06:47:26;;;;;;;7.03;5.15;;;564.00;2432.00;;;;;;5031820;28;20479;-76
2022/08/22 06:49:58;;;;;;;6.30;5.10;;;563.90;2432.00;;;;;;5032087;28;20033;-77
2022/08/22 06:52:27;;;;;;;7.88;5.95;;;564.00;2432.00;;;;;;5027461;28;20404;-76
2022/08/22 06:55:05;;;;;;;7.88;5.50;;;563.90;2432.00;;;;;;5049779;28;20113;-76
2022/08/22 06:57:55;;;;;;;5.97;4.60;;;563.90;2432.00;;;;;;5081363;28;20023;-76
2022/08/22 07:00:21;;;;;;;5.90;5.18;;;564.00;2432.00;;;;;;5093482;28;20423;-76
2022/08/22 07:03:19;;;;;;;7.50;5.97;;;563.80;2432.00;;;;;;5093579;28;20039;-76
2022/08/22 07:05:45;;;;;;;7.07;4.90;;;563.90;2432.00;;;;;;5086158;28;20040;-76
2022/08/22 07:08:17;;;;;;;12.63;5.22;;;563.90;2432.00;;;;;;5093571;28;20012;-75
2022/08/22 07:10:50;;;;;;;6.68;4.65;;;563.90;2432.00;;;;;;5093535;28;20043;-77
2022/08/22 07:13:18;;;;;;;8.18;4.82;;;563.80;2432.00;;;;;;5092396;28;20082;-76
2022/08/22 07:15:52;;;;;;;7.13;5.30;;;563.90;2432.00;;;;;;5093363;28;20517;-76
2022/08/22 07:18:22;;;;;;;7.72;5.63;;;564.00;2432.00;;;;;;5093692;28;20046;-76
2022/08/22 07:20:51;;;;;;;6.85;6.13;;;564.00;2432.00;;;;;;5093364;28;20012;-75
2022/08/22 07:23:34;;;;;;;13.75;6.88;;;564.00;2432.00;;;;;;5093123;28;20168;-77
2022/08/22 07:26:09;;;;;;;12.10;8.32;;;564.10;2432.00;;;;;;5107573;28;20016;-79
2022/08/22 07:28:43;;;;;;;27.08;16.67;;;564.10;2432.00;;;;;;5093167;28;20020;-79
2022/08/22 07:31:23;;;;;;;13.20;6.60;;;588.80;2432.00;;;;;;5095225;28;20016;-75
2022/08/22 07:33:53;;;;;;;8.07;4.25;;;588.80;2432.00;;;;;;5102702;28;20032;-75
2022/08/22 07:36:21;;;;;;;9.32;5.45;;;588.80;2432.00;;;;;;5092983;28;20023;-76
2022/08/22 07:38:52;;;;;;;7.70;5.32;;;564.10;2432.00;;;;;;5093176;28;20020;-75
2022/08/22 07:41:27;;;;;;;6.95;5.03;;;564.10;2432.00;;;;;;5091516;28;20079;-76
2022/08/22 07:44:12;;;;;;;11.35;5.85;;;564.10;2432.00;;;;;;5102832;28;20024;-77
2022/08/22 07:46:55;;;;;;;15.10;6.95;;;588.80;2432.00;;;;;;5098905;28;20031;-76
2022/08/22 07:49:35;;;;;;;9.23;7.30;;;588.90;2432.00;;;;;;5100689;28;20016;-75
2022/08/22 07:52:06;;;;;;;6.97;4.50;;;589.00;2432.00;;;;;;5091444;28;20039;-76
2022/08/22 07:54:39;;;;;;;8.43;5.55;;;589.00;2432.00;;;;;;5093062;28;20132;-76
2022/08/22 07:57:25;;;;;;;10.27;7.35;;;588.90;2432.00;;;;;;5093328;28;20020;-76
2022/08/22 07:59:55;;;;;;;5.88;5.03;;;589.00;2432.00;;;;;;5107011;28;20111;-75
2022/08/22 08:02:22;;;;;;;8.68;5.55;;;588.90;2432.00;;;;;;5092804;28;20039;-75
2022/08/22 08:04:51;;;;;;;10.20;5.10;;;588.90;2432.00;;;;;;5106631;28;20028;-76
2022/08/22 08:07:21;;;;;;;5.85;4.63;;;588.90;2432.00;;;;;;5092863;28;20024;-77
2022/08/22 08:09:55;;;;;;;12.85;6.00;;;588.90;2432.00;;;;;;5092759;28;20024;-76
2022/08/22 08:12:34;;;;;;;11.95;8.25;;;588.90;2432.00;;;;;;5092542;28;20020;-79
2022/08/22 08:15:05;;;;;;;11.48;5.97;;;588.80;2432.00;;;;;;5092612;28;20099;-76
2022/08/22 08:17:33;;;;;;;6.75;5.28;;;564.10;2432.00;;;;;;5092378;28;20086;-78
2022/08/22 08:20:05;;;;;;;10.25;6.00;;;564.00;2432.00;;;;;;5092454;28;20020;-75
2022/08/22 08:22:32;;;;;;;7.95;5.57;;;564.10;2432.00;;;;;;5091081;28;20393;-76
2022/08/22 08:24:59;;;;;;;6.20;5.13;;;588.80;2432.00;;;;;;5092373;28;20016;-76
2022/08/22 08:30:23;;;;;;;8.02;6.03;;;589.00;2432.00;;;;;;5092332;28;20386;-76
2022/08/22 08:32:59;;;;;;;7.43;5.40;;;589.10;2432.00;;;;;;5092122;28;20052;-77
2022/08/22 08:35:28;;;;;;;6.80;4.55;;;589.00;2432.00;;;;;;5102694;28;20016;-76
2022/08/22 08:38:07;;;;;;;11.05;5.43;;;589.10;2432.00;;;;;;5096085;28;20028;-76
2022/08/22 08:40:33;;;;;;;6.75;5.60;;;589.10;2432.00;;;;;;5092454;28;20021;-77
2022/08/22 08:46:24;;;;;;;5.50;3.83;;;589.20;2432.00;;;;;;5092006;28;20043;-75
2022/08/22 08:49:02;;;;;;;9.15;6.13;;;589.30;2432.00;;;;;;5080085;28;20113;-75
2022/08/22 08:51:49;;;;;;;6.32;4.00;;;589.40;2432.00;;;;;;5091940;28;20024;-76
2022/08/22 08:54:43;;;;;;;6.90;4.38;;;589.50;2432.00;;;;;;5092177;28;20023;-75
2022/08/22 08:57:30;;;;;;;5.20;3.92;;;589.50;2432.00;;;;;;5092119;28;20012;-79
2022/08/22 09:00:21;;;;;;;6.53;4.10;;;589.50;2432.00;;;;;;5091764;28;20034;-75
2022/08/22 09:03:04;;;;;;;5.78;4.00;;;589.60;2432.00;;;;;;5091790;28;20036;-75
2022/08/22 09:05:47;;;;;;;7.25;3.67;;;589.70;2432.00;;;;;;5091992;28;20031;-75
2022/08/22 09:08:49;;;;;;;9.68;3.42;;;614.50;2432.00;;;;;;5091898;28;20056;-74
2022/08/22 09:11:46;;;;;;;5.55;3.50;;;614.50;2432.00;;;;;;5082744;28;20081;-76
2022/08/22 09:14:29;;;;;;;6.47;4.35;;;614.40;2432.00;;;;;;5078719;28;20020;-75
2022/08/22 09:17:26;;;;;;;7.18;4.15;;;589.70;2432.00;;;;;;5091707;28;20024;-74
2022/08/22 09:20:16;;;;;;;6.53;4.75;;;614.40;2432.00;;;;;;5091744;28;20474;-75
2022/08/22 09:22:51;;;;;;;8.63;4.32;;;614.40;2432.00;;;;;;5078899;28;20086;-75
2022/08/22 09:25:23;;;;;;;5.50;3.88;;;614.50;2432.00;;;;;;5091290;28;20024;-74
2022/08/22 09:28:21;;;;;;;8.18;6.18;;;614.60;2432.00;;;;;;5091737;28;20024;-75
2022/08/22 09:31:08;;;;;;;5.90;3.63;;;614.70;2432.00;;;;;;5087613;28;20111;-75
2022/08/22 09:33:48;;;;;;;6.55;4.15;;;614.80;2432.00;;;;;;5079959;28;20240;-74
2022/08/22 09:36:29;;;;;;;7.95;3.95;;;614.60;2432.00;;;;;;5091323;28;20016;-75
2022/08/22 09:39:10;;;;;;;4.63;3.35;;;614.50;2432.00;;;;;;5102485;28;20102;-77
2022/08/22 09:42:00;;;;;;;6.82;4.40;;;614.40;2432.00;;;;;;5093451;28;20020;-76
2022/08/22 12:39:25;;;;;;;6.35;3.42;;;614.70;2432.00;;;;;;5151085;27;20719;-78
2022/08/22 12:42:02;;;;;;;3.47;2.88;;;640.00;2432.00;;;;;;5124538;28;20059;-80
2022/08/22 12:44:54;;;;;;;7.53;3.47;;;615.20;2432.00;;;;;;5128516;28;20027;-77
2022/08/22 12:47:32;;;;;;;4.72;3.45;;;615.10;2432.00;;;;;;5128732;28;20036;-77
2022/08/22 12:50:11;;;;;;;5.97;3.65;;;615.10;2432.00;;;;;;5128787;28;20149;-80
2022/08/22 12:52:49;;;;;;;4.45;3.35;;;615.10;2432.00;;;;;;5130268;27;20026;-78
2022/08/22 12:55:42;;;;;;;6.35;3.42;;;615.00;2432.00;;;;;;5129244;28;20015;-78
2022/08/22 12:58:25;;;;;;;7.68;3.95;;;615.20;2432.00;;;;;;5130176;28;20098;-79
2022/08/22 13:00:57;;;;;;;4.50;3.30;;;615.30;2432.00;;;;;;5130060;28;20110;-82
2022/08/22 13:03:30;;;;;;;7.30;3.80;;;615.30;2432.00;;;;;;5129781;27;20473;-80
2022/08/22 13:06:01;;;;;;;5.03;3.53;;;640.00;2432.00;;;;;;5128952;28;20494;-81
2022/08/22 13:08:35;;;;;;;5.45;3.35;;;640.00;2432.00;;;;;;5123050;28;20048;-81
2022/08/22 13:11:06;;;;;;;3.90;3.20;;;640.00;2432.00;;;;;;5116686;28;20084;-81
2022/08/22 13:14:06;;;;;;;4.88;3.50;;;640.10;2432.00;;;;;;5139178;27;20065;-81
2022/08/22 13:16:47;;;;;;;6.97;2.90;;;640.20;2432.00;;;;;;5020132;28;20123;-81
2022/08/22 13:19:22;;;;;;;5.13;3.20;;;640.20;2432.00;;;;;;5019619;28;20088;-80
2022/08/22 13:22:00;;;;;;;4.35;3.42;;;640.20;2432.00;;;;;;5012474;28;20036;-80
2022/08/22 13:24:37;;;;;;;4.43;3.30;;;640.20;2432.00;;;;;;5019667;28;20101;-80
2022/08/22 13:27:26;;;;;;;4.47;3.55;;;640.40;2432.00;;;;;;5023896;28;20123;-77
2022/08/22 13:29:58;;;;;;;13.23;3.28;;;640.50;2432.00;;;;;;5033067;28;20116;-81
2022/08/22 13:32:44;;;;;;;4.43;2.42;;;665.60;2432.00;;;;;;5010199;28;20033;-83
2022/08/22 13:35:19;;;;;;;3.55;2.67;;;665.90;2432.00;;;;;;5010226;28;20022;-80
2022/08/22 13:37:47;;;;;;;5.15;2.35;;;665.80;2432.00;;;;;;5009026;28;20065;-79
2022/08/22 13:40:23;;;;;;;5.10;2.70;;;665.60;2432.00;;;;;;5012628;28;20036;-79
2022/08/22 13:42:51;;;;;;;;;;;665.80;2432.00;;;;;;4996838;28;20026;-80
2022/08/22 13:45:28;;;;;;;3.65;2.58;;;665.90;2432.00;;;;;;4996774;28;19909;-79
2022/08/22 13:48:00;;;;;;;3.58;2.58;;;666.30;2432.00;;;;;;4996254;28;20050;-80
2022/08/22 13:50:30;;;;;;;2.40;2.10;;;666.40;2432.00;;;;;;4996976;28;20026;-80
2022/08/22 13:53:09;;;;;;;4.88;2.58;;;666.30;2432.00;;;;;;5045303;28;20060;-80
2022/08/22 13:55:44;;;;;;;3.40;2.40;;;666.50;2432.00;;;;;;5093119;28;20027;-84
2022/08/22 13:58:19;;;;;;;3.08;2.08;;;691.40;2432.00;;;;;;5094281;28;20063;-80
2022/08/22 14:01:13;;;;;;;3.15;2.25;;;691.50;2432.00;;;;;;5093440;28;20477;-80
2022/08/22 14:03:50;;;;;;;3.30;2.17;;;691.70;2432.00;;;;;;5093555;28;20043;-80
2022/08/22 14:06:34;;;;;;;3.08;1.90;;;691.20;2432.00;;;;;;5092876;28;20024;-79
2022/08/22 14:09:23;;;;;;;6.65;3.00;;;666.30;2432.00;;;;;;5092449;28;20035;-79
2022/08/22 14:11:54;;;;;;;6.25;2.28;;;666.20;2432.00;;;;;;5092357;28;20032;-79
2022/08/22 14:14:29;;;;;;;3.40;2.20;;;666.40;2432.00;;;;;;5092226;28;20032;-80
2022/08/22 14:16:58;;;;;;;3.28;2.35;;;691.50;2432.00;;;;;;5093950;28;20107;-80
2022/08/22 14:19:37;;;;;;;3.20;2.40;;;691.20;2432.00;;;;;;5092221;28;20032;-80
2022/08/22 14:22:09;;;;;;;3.65;2.70;;;666.30;2432.00;;;;;;5093173;28;20020;-80
2022/08/22 14:24:37;;;;;;;3.13;2.35;;;666.20;2432.00;;;;;;5093402;28;20525;-80
2022/08/22 14:27:13;;;;;;;4.47;2.05;;;666.10;2432.00;;;;;;5094150;28;20036;-80
2022/08/22 14:29:49;;;;;;;3.63;2.35;;;666.00;2432.00;;;;;;5088494;28;20029;-80
2022/08/22 14:32:20;;;;;;;3.95;2.20;;;665.90;2432.00;;;;;;5092637;28;20024;-80
2022/08/22 14:34:53;;;;;;;3.08;2.00;;;665.90;2432.00;;;;;;5092738;28;20489;-79
2022/08/22 14:37:43;;;;;;;3.28;2.08;;;665.90;2432.00;;;;;;5093997;28;20121;-79
2022/08/22 14:40:33;;;;;;;3.38;1.90;;;665.90;2432.00;;;;;;5094001;28;20465;-80
2022/08/22 14:43:06;;;;;;;2.92;2.00;;;665.60;2432.00;;;;;;5092630;28;20102;-80
2022/08/22 14:45:41;;;;;;;3.40;2.10;;;665.90;2432.00;;;;;;5092896;28;20024;-80
2022/08/22 14:48:45;;;;;;;5.80;2.20;;;666.00;2432.00;;;;;;5092662;28;20042;-79
2022/08/22 14:51:22;;;;;;;4.18;1.80;;;665.90;2432.00;;;;;;4994384;28;20040;-78
2022/08/22 14:53:49;;;;;;;2.78;2.00;;;665.80;2432.00;;;;;;5011377;28;20120;-79
2022/08/22 14:56:20;;;;;;;3.42;1.80;;;640.90;2432.00;;;;;;4995225;28;20026;-78
2022/08/22 14:59:10;;;;;;;2.75;1.92;;;665.60;2432.00;;;;;;4995061;28;20025;-76
2022/08/22 15:01:59;;;;;;;3.90;2.03;;;640.90;2432.00;;;;;;5011367;28;20037;-78
2022/08/22 15:04:46;;;;;;;4.75;2.42;;;640.90;2432.00;;;;;;5011182;28;20033;-79
2022/08/22 15:07:30;;;;;;;4.38;2.28;;;640.90;2432.00;;;;;;5011306;28;20503;-78
2022/08/22 15:10:06;;;;;;;5.38;2.30;;;640.80;2432.00;;;;;;4994915;28;20037;-79
2022/08/22 15:12:39;;;;;;;3.75;2.40;;;640.80;2432.00;;;;;;5010975;28;20026;-79
2022/08/22 15:15:25;;;;;;;7.35;2.63;;;640.70;2432.00;;;;;;4994937;28;20368;-78
2022/08/22 15:17:51;;;;;;;4.28;2.92;;;640.80;2432.00;;;;;;5010983;28;20037;-78
2022/08/22 15:20:30;;;;;;;6.15;2.58;;;640.70;2432.00;;;;;;5010865;28;20034;-78
2022/08/22 15:23:01;;;;;;;3.58;2.63;;;640.60;2432.00;;;;;;4994795;28;20026;-78
2022/08/22 15:25:32;;;;;;;4.13;2.67;;;640.60;2432.00;;;;;;5010930;28;20690;-78
2022/08/22 15:28:06;;;;;;;9.52;2.75;;;640.60;2432.00;;;;;;5093081;28;20397;-77
2022/08/22 15:30:37;;;;;;;3.50;2.50;;;640.60;2432.00;;;;;;5092629;28;20024;-77
2022/08/22 15:33:22;;;;;;;6.93;2.42;;;640.90;2432.00;;;;;;5092612;28;20105;-79
2022/08/22 15:35:50;;;;;;;5.63;2.70;;;640.90;2432.00;;;;;;5091537;28;20062;-77
2022/08/22 15:38:38;;;;;;;5.45;2.85;;;665.70;2432.00;;;;;;5091129;28;20052;-77
2022/08/22 15:41:35;;;;;;;3.47;2.25;;;665.90;2432.00;;;;;;5092665;28;20024;-77
2022/08/22 15:44:12;;;;;;;3.78;2.30;;;666.10;2432.00;;;;;;5092402;28;20579;-77
2022/08/22 15:46:54;;;;;;;3.10;2.47;;;666.20;2432.00;;;;;;5091373;28;20031;-75
2022/08/22 15:49:19;;;;;;;2.95;1.90;;;666.20;2432.00;;;;;;5090634;28;20043;-77
2022/08/22 15:51:57;;;;;;;4.13;2.50;;;666.20;2432.00;;;;;;5091059;28;20028;-76
2022/08/22 15:54:25;;;;;;;2.67;1.80;;;666.20;2432.00;;;;;;5092599;28;20024;-77
2022/08/22 15:57:09;;;;;;;3.05;2.03;;;666.10;2432.00;;;;;;5092243;28;20024;-76
2022/08/22 15:59:38;;;;;;;6.15;1.75;;;665.90;2432.00;;;;;;5092727;28;20536;-76
2022/08/22 16:02:19;;;;;;;6.60;2.28;;;665.90;2432.00;;;;;;5092159;28;20053;-77
2022/08/22 16:05:01;;;;;;;3.85;1.67;;;665.90;2432.00;;;;;;5091207;28;20024;-75
2022/08/22 16:08:10;;;;;;;2.25;1.63;;;665.90;2406.40;;;;;;5092375;28;20040;-75
2022/08/22 16:10:44;;;;;;;2.90;1.60;;;665.90;2432.00;;;;;;5009919;28;20060;-77
2022/08/22 16:13:33;;;;;;;3.80;1.80;;;665.70;2432.00;;;;;;4992732;28;20137;-78
2022/08/22 16:16:07;;;;;;;4.47;2.17;;;665.70;2432.00;;;;;;5009314;28;20037;-76
2022/08/22 16:18:32;;;;;;;3.03;1.85;;;665.70;2432.00;;;;;;5008888;28;20040;-76
2022/08/22 16:21:21;;;;;;;4.05;2.03;;;640.90;2432.00;;;;;;5009376;28;20030;-76